sensor_id;sensor_type;location;lat;lon;timestamp;P1;durP1;ratioP1;P2;durP2;ratioP2
42666;SDS011;28280;49.646;14.130;2023-12-20T00:04:15;3.92;;;2.40;;
42666;SDS011;28280;49.646;14.130;2023-12-20T00:14:37;3.55;;;2.42;;
42666;SDS011;28280;49.646;14.130;2023-12-20T00:24:58;4.03;;;2.53;;
42666;SDS011;28280;49.646;14.130;2023-12-20T00:35:19;3.78;;;2.50;;
42666;SDS011;28280;49.646;14.130;2023-12-20T00:45:41;4.68;;;2.45;;
42666;SDS011;28280;49.646;14.130;2023-12-20T00:56:02;4.65;;;2.70;;
42666;SDS011;28280;49.646;14.130;2023-12-20T01:06:23;5.68;;;3.00;;
42666;SDS011;28280;49.646;14.130;2023-12-20T01:16:45;3.40;;;2.10;;
42666;SDS011;28280;49.646;14.130;2023-12-20T01:27:07;3.55;;;2.30;;
42666;SDS011;28280;49.646;14.130;2023-12-20T01:37:27;4.10;;;2.10;;
42666;SDS011;28280;49.646;14.130;2023-12-20T01:47:50;3.88;;;2.25;;
42666;SDS011;28280;49.646;14.130;2023-12-20T01:58:12;4.75;;;2.47;;
42666;SDS011;28280;49.646;14.130;2023-12-20T02:08:34;2.40;;;1.80;;
42666;SDS011;28280;49.646;14.130;2023-12-20T02:18:55;3.83;;;2.15;;
42666;SDS011;28280;49.646;14.130;2023-12-20T02:29:17;3.03;;;1.98;;
42666;SDS011;28280;49.646;14.130;2023-12-20T02:39:38;2.28;;;1.40;;
42666;SDS011;28280;49.646;14.130;2023-12-20T02:50:00;3.63;;;1.65;;
42666;SDS011;28280;49.646;14.130;2023-12-20T03:00:22;2.33;;;1.90;;
42666;SDS011;28280;49.646;14.130;2023-12-20T03:10:43;4.32;;;2.00;;
42666;SDS011;28280;49.646;14.130;2023-12-20T03:21:05;2.20;;;1.58;;
42666;SDS011;28280;49.646;14.130;2023-12-20T03:31:26;2.00;;;1.40;;
42666;SDS011;28280;49.646;14.130;2023-12-20T03:41:48;2.13;;;1.42;;
42666;SDS011;28280;49.646;14.130;2023-12-20T03:52:09;2.67;;;1.40;;
42666;SDS011;28280;49.646;14.130;2023-12-20T04:02:30;2.60;;;1.40;;
42666;SDS011;28280;49.646;14.130;2023-12-20T04:12:52;2.38;;;1.52;;
42666;SDS011;28280;49.646;14.130;2023-12-20T04:23:13;1.70;;;1.30;;
42666;SDS011;28280;49.646;14.130;2023-12-20T04:33:34;1.88;;;1.40;;
42666;SDS011;28280;49.646;14.130;2023-12-20T04:43:55;3.33;;;1.30;;
42666;SDS011;28280;49.646;14.130;2023-12-20T04:54:16;1.65;;;1.08;;
42666;SDS011;28280;49.646;14.130;2023-12-20T05:04:38;1.45;;;1.00;;
42666;SDS011;28280;49.646;14.130;2023-12-20T05:14:59;1.95;;;1.20;;
42666;SDS011;28280;49.646;14.130;2023-12-20T05:25:21;1.25;;;0.90;;
42666;SDS011;28280;49.646;14.130;2023-12-20T05:35:42;2.03;;;1.05;;
42666;SDS011;28280;49.646;14.130;2023-12-20T05:46:05;1.52;;;1.00;;
42666;SDS011;28280;49.646;14.130;2023-12-20T05:56:26;1.23;;;0.90;;
42666;SDS011;28280;49.646;14.130;2023-12-20T06:06:48;1.30;;;0.90;;
42666;SDS011;28280;49.646;14.130;2023-12-20T06:17:09;1.27;;;1.00;;
42666;SDS011;28280;49.646;14.130;2023-12-20T06:27:30;1.88;;;1.10;;
42666;SDS011;28280;49.646;14.130;2023-12-20T06:37:53;1.27;;;0.80;;
42666;SDS011;28280;49.646;14.130;2023-12-20T06:48:15;1.35;;;0.90;;
42666;SDS011;28280;49.646;14.130;2023-12-20T06:58:36;1.23;;;0.88;;
42666;SDS011;28280;49.646;14.130;2023-12-20T07:08:58;1.08;;;0.80;;
42666;SDS011;28280;49.646;14.130;2023-12-20T07:19:19;0.70;;;0.60;;
42666;SDS011;28280;49.646;14.130;2023-12-20T07:29:41;1.27;;;0.77;;
42666;SDS011;28280;49.646;14.130;2023-12-20T07:40:02;1.48;;;0.80;;
42666;SDS011;28280;49.646;14.130;2023-12-20T07:50:24;0.90;;;0.70;;
42666;SDS011;28280;49.646;14.130;2023-12-20T08:00:45;0.93;;;0.70;;
42666;SDS011;28280;49.646;14.130;2023-12-20T08:11:07;0.50;;;0.50;;
42666;SDS011;28280;49.646;14.130;2023-12-20T08:21:28;0.82;;;0.60;;
42666;SDS011;28280;49.646;14.130;2023-12-20T08:31:53;0.70;;;0.60;;
42666;SDS011;28280;49.646;14.130;2023-12-20T08:42:15;0.60;;;0.60;;
42666;SDS011;28280;49.646;14.130;2023-12-20T08:52:36;0.60;;;0.60;;
42666;SDS011;28280;49.646;14.130;2023-12-20T09:02:57;2.63;;;0.70;;
42666;SDS011;28280;49.646;14.130;2023-12-20T09:13:18;0.95;;;0.70;;
42666;SDS011;28280;49.646;14.130;2023-12-20T09:23:39;0.80;;;0.80;;
42666;SDS011;28280;49.646;14.130;2023-12-20T09:34:01;0.60;;;0.60;;
42666;SDS011;28280;49.646;14.130;2023-12-20T09:44:24;0.88;;;0.68;;
42666;SDS011;28280;49.646;14.130;2023-12-20T09:54:45;1.10;;;0.73;;
42666;SDS011;28280;49.646;14.130;2023-12-20T10:05:09;0.63;;;0.63;;
42666;SDS011;28280;49.646;14.130;2023-12-20T10:15:36;0.98;;;0.70;;
42666;SDS011;28280;49.646;14.130;2023-12-20T10:25:59;0.95;;;0.75;;
42666;SDS011;28280;49.646;14.130;2023-12-20T10:36:20;0.68;;;0.60;;
42666;SDS011;28280;49.646;14.130;2023-12-20T10:46:42;1.15;;;0.80;;
42666;SDS011;28280;49.646;14.130;2023-12-20T10:57:10;1.05;;;0.70;;
42666;SDS011;28280;49.646;14.130;2023-12-20T11:07:33;1.02;;;0.85;;
42666;SDS011;28280;49.646;14.130;2023-12-20T11:28:20;0.80;;;0.70;;
42666;SDS011;28280;49.646;14.130;2023-12-20T11:39:04;1.38;;;0.90;;
42666;SDS011;28280;49.646;14.130;2023-12-20T11:49:31;1.42;;;1.00;;
42666;SDS011;28280;49.646;14.130;2023-12-20T11:59:52;1.63;;;1.10;;
42666;SDS011;28280;49.646;14.130;2023-12-20T12:10:14;1.50;;;1.10;;
42666;SDS011;28280;49.646;14.130;2023-12-20T12:20:35;1.00;;;0.85;;
42666;SDS011;28280;49.646;14.130;2023-12-20T12:30:58;1.67;;;0.90;;
42666;SDS011;28280;49.646;14.130;2023-12-20T12:41:20;2.28;;;1.05;;
42666;SDS011;28280;49.646;14.130;2023-12-20T12:51:41;1.85;;;0.98;;
42666;SDS011;28280;49.646;14.130;2023-12-20T13:02:04;1.08;;;0.90;;
42666;SDS011;28280;49.646;14.130;2023-12-20T13:12:25;1.10;;;0.88;;
42666;SDS011;28280;49.646;14.130;2023-12-20T13:22:47;1.35;;;0.90;;
42666;SDS011;28280;49.646;14.130;2023-12-20T13:33:08;1.50;;;0.90;;
42666;SDS011;28280;49.646;14.130;2023-12-20T13:43:30;1.52;;;0.90;;
42666;SDS011;28280;49.646;14.130;2023-12-20T13:53:53;1.95;;;0.95;;
42666;SDS011;28280;49.646;14.130;2023-12-20T14:04:15;2.50;;;1.20;;
42666;SDS011;28280;49.646;14.130;2023-12-20T14:14:56;2.13;;;0.82;;
42666;SDS011;28280;49.646;14.130;2023-12-20T14:25:18;3.45;;;0.90;;
42666;SDS011;28280;49.646;14.130;2023-12-20T14:35:39;2.53;;;1.00;;
42666;SDS011;28280;49.646;14.130;2023-12-20T14:46:06;1.53;;;0.90;;
42666;SDS011;28280;49.646;14.130;2023-12-20T14:56:27;1.35;;;1.00;;
42666;SDS011;28280;49.646;14.130;2023-12-20T15:06:49;2.92;;;1.33;;
42666;SDS011;28280;49.646;14.130;2023-12-20T15:17:10;1.75;;;1.05;;
42666;SDS011;28280;49.646;14.130;2023-12-20T15:27:32;2.55;;;1.30;;
42666;SDS011;28280;49.646;14.130;2023-12-20T15:37:55;3.63;;;1.30;;
42666;SDS011;28280;49.646;14.130;2023-12-20T15:48:17;3.97;;;1.05;;
42666;SDS011;28280;49.646;14.130;2023-12-20T15:58:41;2.75;;;1.48;;
42666;SDS011;28280;49.646;14.130;2023-12-20T16:09:02;2.38;;;1.20;;
42666;SDS011;28280;49.646;14.130;2023-12-20T16:19:23;2.15;;;1.20;;
42666;SDS011;28280;49.646;14.130;2023-12-20T16:29:45;2.92;;;1.00;;
42666;SDS011;28280;49.646;14.130;2023-12-20T16:40:07;3.70;;;1.15;;
42666;SDS011;28280;49.646;14.130;2023-12-20T16:50:29;2.88;;;1.40;;
42666;SDS011;28280;49.646;14.130;2023-12-20T17:00:50;4.15;;;1.08;;
42666;SDS011;28280;49.646;14.130;2023-12-20T17:11:12;2.13;;;1.10;;
42666;SDS011;28280;49.646;14.130;2023-12-20T17:21:33;1.70;;;1.08;;
42666;SDS011;28280;49.646;14.130;2023-12-20T17:31:54;3.10;;;1.10;;
42666;SDS011;28280;49.646;14.130;2023-12-20T17:42:16;13.48;;;2.28;;
42666;SDS011;28280;49.646;14.130;2023-12-20T17:52:37;3.30;;;1.20;;
42666;SDS011;28280;49.646;14.130;2023-12-20T18:02:59;5.38;;;1.83;;
42666;SDS011;28280;49.646;14.130;2023-12-20T18:13:21;3.50;;;1.40;;
42666;SDS011;28280;49.646;14.130;2023-12-20T18:23:43;5.20;;;1.55;;
42666;SDS011;28280;49.646;14.130;2023-12-20T18:34:04;4.47;;;1.58;;
42666;SDS011;28280;49.646;14.130;2023-12-20T18:44:27;2.55;;;1.27;;
42666;SDS011;28280;49.646;14.130;2023-12-20T18:54:49;2.90;;;1.20;;
42666;SDS011;28280;49.646;14.130;2023-12-20T19:05:10;2.42;;;1.23;;
42666;SDS011;28280;49.646;14.130;2023-12-20T19:15:35;1.90;;;1.48;;
42666;SDS011;28280;49.646;14.130;2023-12-20T19:25:57;3.72;;;1.20;;
42666;SDS011;28280;49.646;14.130;2023-12-20T19:36:19;4.47;;;1.42;;
42666;SDS011;28280;49.646;14.130;2023-12-20T19:46:41;2.30;;;1.30;;
42666;SDS011;28280;49.646;14.130;2023-12-20T19:57:03;2.90;;;1.27;;
42666;SDS011;28280;49.646;14.130;2023-12-20T20:07:24;3.78;;;1.33;;
42666;SDS011;28280;49.646;14.130;2023-12-20T20:17:46;2.67;;;1.33;;
42666;SDS011;28280;49.646;14.130;2023-12-20T20:28:07;3.15;;;1.60;;
42666;SDS011;28280;49.646;14.130;2023-12-20T20:38:29;2.15;;;1.20;;
42666;SDS011;28280;49.646;14.130;2023-12-20T20:48:50;2.70;;;1.20;;
42666;SDS011;28280;49.646;14.130;2023-12-20T20:59:12;3.28;;;1.50;;
42666;SDS011;28280;49.646;14.130;2023-12-20T21:09:34;3.53;;;1.38;;
42666;SDS011;28280;49.646;14.130;2023-12-20T21:19:55;2.15;;;1.30;;
42666;SDS011;28280;49.646;14.130;2023-12-20T21:30:18;2.05;;;1.30;;
42666;SDS011;28280;49.646;14.130;2023-12-20T21:40:39;3.47;;;1.38;;
42666;SDS011;28280;49.646;14.130;2023-12-20T21:51:00;2.25;;;1.20;;
42666;SDS011;28280;49.646;14.130;2023-12-20T22:01:21;2.92;;;1.30;;
42666;SDS011;28280;49.646;14.130;2023-12-20T22:11:43;4.70;;;1.38;;
42666;SDS011;28280;49.646;14.130;2023-12-20T22:22:05;2.05;;;1.10;;
42666;SDS011;28280;49.646;14.130;2023-12-20T22:32:26;1.85;;;1.00;;
42666;SDS011;28280;49.646;14.130;2023-12-20T22:42:49;2.20;;;1.10;;
42666;SDS011;28280;49.646;14.130;2023-12-20T22:53:10;1.80;;;0.95;;
42666;SDS011;28280;49.646;14.130;2023-12-20T23:03:32;1.23;;;0.90;;
42666;SDS011;28280;49.646;14.130;2023-12-20T23:13:53;2.20;;;1.20;;
42666;SDS011;28280;49.646;14.130;2023-12-20T23:24:27;1.40;;;0.90;;
42666;SDS011;28280;49.646;14.130;2023-12-20T23:34:49;3.13;;;0.93;;
42666;SDS011;28280;49.646;14.130;2023-12-20T23:45:30;1.95;;;0.95;;
42666;SDS011;28280;49.646;14.130;2023-12-20T23:55:53;2.17;;;1.00;;
